Time;durP1;ratioP1;P1;durP2;ratioP2;P2;SDS_P1;SDS_P2;PMS_P1;PMS_P2;Temp;Humidity;BMP_temperature;BMP_pressure;BME280_temperature;BME280_humidity;BME280_pressure;Samples;Min_cycle;Max_cycle;Signal;HPM_P1;HPM_P2
2022/04/21 00:01:39;;;;;;;23.50;10.27;;;;;;;-149.78;100.00;50228.94;4897236;29;20404;-70
2022/04/21 00:04:05;;;;;;;30.60;10.65;;;;;;;-149.78;100.00;50225.03;4895919;29;20040;-70
2022/04/21 00:06:30;;;;;;;25.77;9.93;;;;;;;-149.78;100.00;50236.75;4895875;29;20044;-70
2022/04/21 00:08:56;;;;;;;29.83;10.57;;;;;;;-149.78;100.00;50209.38;4895740;29;20053;-70
2022/04/21 00:11:22;;;;;;;25.00;11.38;;;;;;;-149.78;100.00;50240.66;4897072;29;20040;-70
2022/04/21 00:13:47;;;;;;;26.08;10.80;;;;;;;-149.78;100.00;50225.03;4895682;29;20135;-70
2022/04/21 00:16:13;;;;;;;27.10;11.23;;;;;;;-149.78;100.00;50244.59;4896842;29;20029;-70
2022/04/21 00:18:39;;;;;;;28.38;11.50;;;;;;;-149.78;100.00;50248.50;4897042;29;20036;-70
2022/04/21 00:21:05;;;;;;;29.30;10.55;;;;;;;-149.78;100.00;50225.03;4895899;29;20092;-70
2022/04/21 00:23:31;;;;;;;28.38;11.20;;;;;;;-149.78;100.00;50268.03;4895808;29;20036;-70
2022/04/21 00:26:00;;;;;;;29.88;12.15;;;;;;;-149.78;100.00;50228.94;4898809;29;20047;-70
2022/04/21 00:28:29;;;;;;;26.88;12.10;;;;;;;-149.78;100.00;50221.13;4900528;29;20036;-70
2022/04/21 00:30:56;;;;;;;29.73;11.43;;;;;;;-149.78;100.00;50240.66;4900503;29;20047;-70
2022/04/21 00:33:21;;;;;;;37.45;12.50;;;;;;;-149.78;100.00;50225.03;4900468;29;20156;-70
2022/04/21 00:35:47;;;;;;;35.22;13.07;;;;;;;-149.78;100.00;50260.22;4903500;29;20032;-70
2022/04/21 00:38:13;;;;;;;38.03;13.52;;;;;;;-149.78;100.00;50225.03;4919264;29;20551;-70
2022/04/21 00:40:40;;;;;;;32.58;13.43;;;;;;;-149.78;100.00;50240.66;4917993;29;20608;-70
2022/04/21 00:43:06;;;;;;;38.45;13.38;;;;;;;-149.78;100.00;50236.75;4919151;29;20051;-70
2022/04/21 00:45:33;;;;;;;28.15;13.48;;;;;;;-149.78;100.00;50217.19;4919043;29;20370;-70
2022/04/21 00:48:02;;;;;;;35.95;14.40;;;;;;;-149.78;100.00;50230.88;4917762;29;20365;-70
2022/04/21 00:50:30;;;;;;;36.05;14.13;;;;;;;-149.78;100.00;50189.81;4918903;29;20126;-70
2022/04/21 00:52:57;;;;;;;35.15;13.95;;;;;;;-149.78;100.00;50246.53;4902003;29;20439;-70
2022/04/21 00:55:23;;;;;;;33.38;14.27;;;;;;;-149.78;100.00;50240.66;4917626;29;20036;-70
2022/04/21 00:57:51;;;;;;;36.85;14.25;;;;;;;-149.78;100.00;50283.69;4918848;29;20123;-70
2022/04/21 01:00:17;;;;;;;34.47;13.93;;;;;;;-149.78;100.00;50252.41;4918993;29;20030;-71
2022/04/21 01:02:46;;;;;;;35.13;13.60;;;;;;;-149.78;100.00;50268.03;4918774;29;20385;-71
2022/04/21 01:05:14;;;;;;;33.72;14.50;;;;;;;-149.78;100.00;50254.34;4903690;29;20040;-70
2022/04/21 01:07:40;;;;;;;35.45;14.60;;;;;;;-149.78;100.00;50238.72;4905670;29;20028;-71
2022/04/21 01:10:06;;;;;;;35.28;15.15;;;;;;;-149.78;100.00;50264.13;4900170;29;20367;-70
2022/04/21 01:12:33;;;;;;;29.17;14.30;;;;;;;-149.78;100.00;50271.97;4899396;29;20552;-71
2022/04/21 01:14:58;;;;;;;33.33;14.55;;;;;;;-149.78;100.00;50236.75;4899619;29;20453;-70
2022/04/21 01:17:33;;;;;;;45.03;14.85;;;;;;;-149.78;100.00;50238.72;4899596;29;20040;-71
2022/04/21 01:20:00;;;;;;;31.88;15.40;;;;;;;-149.78;100.00;50244.59;4898415;29;20048;-70
2022/04/21 01:22:25;;;;;;;37.17;15.40;;;;;;;-149.78;100.00;50219.16;4898349;29;20492;-70
2022/04/21 01:24:51;;;;;;;37.22;15.93;;;;;;;-149.78;100.00;50271.97;4898375;29;20068;-71
2022/04/21 01:27:17;;;;;;;37.20;15.70;;;;;;;-149.78;100.00;50226.97;4898405;29;20047;-70
2022/04/21 01:29:43;;;;;;;41.60;16.95;;;;;;;-149.78;100.00;50264.13;4899443;29;20092;-71
2022/04/21 01:32:10;;;;;;;39.50;15.93;;;;;;;-149.78;100.00;50236.75;4898289;29;20405;-71
2022/04/21 01:34:37;;;;;;;33.88;15.93;;;;;;;-149.78;100.00;50230.88;4898052;29;20033;-71
2022/04/21 01:42:32;;;;;;;39.50;16.23;;;;;;;-149.78;100.00;50240.66;4898610;29;20500;-71
2022/04/21 01:44:58;;;;;;;40.75;16.50;;;;;;;-149.78;100.00;50260.22;4898852;29;20044;-70
2022/04/21 01:47:23;;;;;;;39.40;15.98;;;;;;;-149.78;100.00;50260.22;4910105;29;20040;-70
2022/04/21 01:49:50;;;;;;;42.08;17.35;;;;;;;-149.78;100.00;50275.88;4916387;29;20048;-71
2022/04/21 01:52:16;;;;;;;36.83;16.17;;;;;;;-149.78;100.00;50242.63;4900174;29;20096;-71
2022/04/21 01:54:44;;;;;;;36.08;16.23;;;;;;;-149.78;100.00;50244.59;4881838;29;20125;-70
2022/04/21 01:57:11;;;;;;;43.85;18.10;;;;;;;-149.78;100.00;50225.03;4898603;29;20068;-71
2022/04/21 01:59:36;;;;;;;39.40;17.70;;;;;;;-149.78;100.00;50213.28;4898870;29;20067;-71
2022/04/21 02:02:02;;;;;;;43.15;17.88;;;;;;;-149.78;100.00;50250.44;4898795;29;20037;-71
2022/04/21 02:04:27;;;;;;;38.25;17.27;;;;;;;-149.78;100.00;50266.09;4898861;29;20127;-71
2022/04/21 02:06:53;;;;;;;35.63;17.48;;;;;;;-149.78;100.00;50264.13;4897266;29;20056;-71
2022/04/21 02:09:18;;;;;;;42.17;18.20;;;;;;;-149.78;100.00;50264.13;4903474;29;20056;-71
2022/04/21 02:11:44;;;;;;;42.60;17.92;;;;;;;-149.78;100.00;50268.03;4898718;29;20121;-71
2022/04/21 02:14:10;;;;;;;42.97;17.65;;;;;;;-149.78;100.00;50260.22;4897259;29;20040;-70
2022/04/21 02:16:35;;;;;;;40.85;17.73;;;;;;;-149.78;100.00;50279.78;4897189;29;20119;-70
2022/04/21 02:19:01;;;;;;;45.08;18.95;;;;;;;-149.78;100.00;50266.09;4897531;29;20062;-70
2022/04/21 02:21:26;;;;;;;43.13;18.65;;;;;;;-149.78;100.00;50256.31;4897548;29;20032;-70
2022/04/21 02:23:52;;;;;;;41.97;18.98;;;;;;;-149.78;100.00;50256.31;4895571;29;20038;-71
2022/04/21 02:26:18;;;;;;;37.10;17.55;;;;;;;-149.78;100.00;50256.31;4898189;29;20449;-71
2022/04/21 02:28:43;;;;;;;45.63;18.60;;;;;;;-149.78;100.00;50275.88;4881212;29;20063;-71
2022/04/21 02:31:09;;;;;;;40.83;17.98;;;;;;;-149.78;100.00;50258.28;4887228;29;20043;-71
2022/04/21 02:33:35;;;;;;;37.33;17.23;;;;;;;-149.78;100.00;50256.31;4900549;29;20500;-71
2022/04/21 02:36:00;;;;;;;37.60;17.33;;;;;;;-149.78;100.00;50236.75;4896968;29;20055;-70
2022/04/21 02:38:28;;;;;;;36.20;17.67;;;;;;;-149.78;100.00;50248.50;4898158;29;20116;-71
2022/04/21 02:40:54;;;;;;;36.08;17.67;;;;;;;-149.78;100.00;50230.88;4897742;29;20037;-71
2022/04/21 02:43:19;;;;;;;33.22;17.23;;;;;;;-149.78;100.00;50244.59;4898222;29;20040;-70
2022/04/21 02:45:45;;;;;;;35.75;16.10;;;;;;;-149.78;100.00;50277.81;4898017;29;20048;-70
2022/04/21 02:48:11;;;;;;;38.17;17.63;;;;;;;-149.78;100.00;50256.31;4897233;29;20041;-70
2022/04/21 02:50:37;;;;;;;40.33;18.05;;;;;;;-149.78;100.00;50244.59;4897925;29;20040;-70
2022/04/21 02:53:03;;;;;;;39.55;18.83;;;;;;;-149.78;100.00;50268.03;4897877;29;20041;-69
2022/04/21 02:58:14;;;;;;;36.40;17.92;;;;;;;-149.78;100.00;50234.81;4908372;29;20040;-70
2022/04/21 03:00:40;;;;;;;38.42;17.70;;;;;;;-149.78;100.00;50268.03;4915351;29;20368;-70
2022/04/21 03:03:05;;;;;;;35.35;17.38;;;;;;;-149.78;100.00;50287.59;4900090;29;20040;-70
2022/04/21 03:05:31;;;;;;;38.20;17.15;;;;;;;-149.78;100.00;50260.22;4897463;29;20041;-70
2022/04/21 03:07:56;;;;;;;37.90;17.63;;;;;;;-149.78;100.00;50256.31;4897590;29;20044;-70
2022/04/21 03:10:22;;;;;;;34.78;17.30;;;;;;;-149.78;100.00;50275.88;4896406;29;20033;-70
2022/04/21 03:12:48;;;;;;;37.97;17.50;;;;;;;-149.78;100.00;50291.50;4896297;29;20071;-70
2022/04/21 03:15:13;;;;;;;47.10;19.40;;;;;;;-149.78;100.00;50283.69;4897365;29;20044;-70
2022/04/21 03:17:40;;;;;;;36.65;17.65;;;;;;;-149.78;100.00;50246.53;4893548;29;20063;-70
2022/04/21 03:20:06;;;;;;;42.63;17.30;;;;;;;-149.78;100.00;50236.75;4896114;29;20032;-70
2022/04/21 03:25:17;;;;;;;33.90;17.15;;;;;;;-149.78;100.00;50287.59;4897137;29;20127;-70
2022/04/21 03:27:46;;;;;;;45.00;18.85;;;;;;;-149.78;100.00;50213.28;4895850;29;20441;-69
2022/04/21 03:30:13;;;;;;;42.00;18.42;;;;;;;-149.78;100.00;50256.31;4897179;29;20080;-70
2022/04/21 03:32:39;;;;;;;36.70;17.42;;;;;;;-149.78;100.00;50268.03;4895779;29;20104;-70
2022/04/21 03:35:06;;;;;;;45.10;17.92;;;;;;;-149.78;100.00;50275.88;4865129;29;20045;-70
2022/04/21 03:37:32;;;;;;;43.38;18.25;;;;;;;-149.78;100.00;50240.66;4895820;29;20056;-69
2022/04/21 03:39:58;;;;;;;40.97;18.65;;;;;;;-149.78;100.00;50260.22;4895886;29;20087;-70
2022/04/21 03:42:27;;;;;;;40.30;19.40;;;;;;;-149.78;100.00;50256.31;4896983;29;20053;-69
2022/04/21 03:44:54;;;;;;;41.80;20.15;;;;;;;-149.78;100.00;50289.56;4895744;29;20083;-70
2022/04/21 03:47:21;;;;;;;39.90;18.42;;;;;;;-149.78;100.00;50264.13;4897095;29;20036;-70
2022/04/21 03:49:47;;;;;;;40.33;19.75;;;;;;;-149.78;100.00;50275.88;4896910;29;20576;-70
2022/04/21 03:52:13;;;;;;;42.75;18.83;;;;;;;-149.78;100.00;50264.13;4896743;29;20061;-70
2022/04/21 03:54:40;;;;;;;42.78;19.27;;;;;;;-149.78;100.00;50287.59;4880217;29;20410;-70
2022/04/21 03:57:07;;;;;;;37.30;19.67;;;;;;;-149.78;100.00;50262.19;4896993;29;20481;-69
2022/04/21 03:59:33;;;;;;;42.88;18.75;;;;;;;-149.78;100.00;50287.59;4899422;29;20077;-69
2022/04/21 04:02:02;;;;;;;39.83;20.02;;;;;;;-149.78;100.00;50268.03;4900723;29;20051;-70
2022/04/21 04:04:33;;;;;;;41.28;20.17;;;;;;;-149.78;100.00;50279.78;4900716;29;20036;-69
2022/04/21 04:12:32;;;;;;;39.70;20.08;;;;;;;-149.78;100.00;50268.03;4899646;29;20045;-69
2022/04/21 04:14:59;;;;;;;49.45;20.73;;;;;;;-149.78;100.00;50270.00;4900804;29;20123;-69
2022/04/21 04:17:24;;;;;;;43.10;20.38;;;;;;;-149.78;100.00;50275.88;4900670;29;20036;-69
2022/04/21 04:19:50;;;;;;;41.15;20.27;;;;;;;-149.78;100.00;50277.81;4900823;29;20123;-69
2022/04/21 04:22:16;;;;;;;40.47;19.95;;;;;;;-149.78;100.00;50266.09;4900620;29;20068;-70
2022/04/21 04:24:43;;;;;;;47.58;21.73;;;;;;;-149.78;100.00;50242.63;4900339;29;20040;-70
2022/04/21 04:27:09;;;;;;;44.20;21.63;;;;;;;-149.78;100.00;50307.16;4899279;29;20128;-69
2022/04/21 04:29:34;;;;;;;44.38;20.90;;;;;;;-149.78;100.00;50268.03;4900485;29;20119;-69
2022/04/21 04:32:01;;;;;;;44.85;20.83;;;;;;;-149.78;100.00;50275.88;4900097;29;20029;-70
2022/04/21 04:34:27;;;;;;;50.28;21.27;;;;;;;-149.78;100.00;50291.50;4900190;29;20041;-70
2022/04/21 04:36:53;;;;;;;45.33;20.35;;;;;;;-149.78;100.00;50277.81;4900247;29;20068;-69
2022/04/21 04:39:19;;;;;;;46.58;20.42;;;;;;;-149.78;100.00;50289.56;4899122;29;20120;-70
2022/04/21 04:44:29;;;;;;;48.80;21.23;;;;;;;-149.78;100.00;50309.13;4899918;29;20033;-70
2022/04/21 04:46:55;;;;;;;43.03;20.58;;;;;;;-149.78;100.00;50248.50;4898837;29;20043;-70
2022/04/21 04:49:21;;;;;;;43.70;21.02;;;;;;;-149.78;100.00;50260.22;4898761;29;20040;-70
2022/04/21 04:51:47;;;;;;;44.83;21.50;;;;;;;-149.78;100.00;50350.19;4899606;29;20040;-70
2022/04/21 04:54:14;;;;;;;45.83;21.85;;;;;;;-149.78;100.00;50268.03;4883020;29;20527;-70
2022/04/21 04:56:42;;;;;;;47.72;20.88;;;;;;;-149.78;100.00;50273.91;4898661;29;20119;-70
2022/04/21 04:59:07;;;;;;;49.00;22.35;;;;;;;-149.78;100.00;50271.97;4898557;29;20068;-70
2022/04/21 05:01:43;;;;;;;46.50;21.85;;;;;;;-149.78;100.00;50287.59;4899607;29;20071;-70
2022/04/21 05:04:13;;;;;;;45.75;22.00;;;;;;;-149.78;100.00;50264.13;4899770;29;20048;-70
2022/04/21 05:06:46;;;;;;;41.72;21.95;;;;;;;-149.78;100.00;50234.81;4899638;29;20562;-70
2022/04/21 05:09:14;;;;;;;44.05;22.05;;;;;;;-149.78;100.00;50314.97;4899135;29;20036;-70
2022/04/21 05:11:42;;;;;;;45.10;22.67;;;;;;;-149.78;100.00;50268.03;4898700;29;20529;-69
2022/04/21 05:14:09;;;;;;;46.13;22.10;;;;;;;-149.78;100.00;50248.50;4899541;29;20370;-70
2022/04/21 05:16:39;;;;;;;44.80;22.23;;;;;;;-149.78;100.00;50279.78;4899472;29;20036;-70
2022/04/21 05:19:09;;;;;;;43.88;22.45;;;;;;;-149.78;100.00;50268.03;4899501;29;20104;-70
2022/04/21 05:21:36;;;;;;;42.33;21.13;;;;;;;-149.78;100.00;50338.44;4898177;29;20075;-69
2022/04/21 05:24:03;;;;;;;46.80;20.92;;;;;;;-149.78;100.00;50291.50;4899420;29;20068;-70
2022/04/21 05:26:32;;;;;;;45.50;21.42;;;;;;;-149.78;100.00;50260.22;4899231;29;20092;-70
2022/04/21 05:28:59;;;;;;;46.38;20.45;;;;;;;-149.78;100.00;50277.81;4898030;29;20128;-70
2022/04/21 05:31:26;;;;;;;46.85;20.40;;;;;;;-149.78;100.00;50264.13;4899004;29;20119;-70
2022/04/21 05:33:53;;;;;;;44.25;21.02;;;;;;;-149.78;100.00;50350.19;4882341;29;20384;-70
2022/04/21 05:36:19;;;;;;;39.33;19.80;;;;;;;-149.78;100.00;50295.44;4878771;29;20079;-70
2022/04/21 05:38:46;;;;;;;41.17;21.40;;;;;;;-149.78;100.00;50299.34;4880040;29;20072;-70
2022/04/21 05:41:14;;;;;;;41.75;20.83;;;;;;;-149.78;100.00;50291.50;4879016;29;20033;-70
2022/04/21 05:43:46;;;;;;;44.75;19.30;;;;;;;-149.78;100.00;50242.63;4894278;29;20049;-69
2022/04/21 05:46:13;;;;;;;45.00;20.50;;;;;;;-149.78;100.00;50275.88;4878736;29;20593;-70
2022/04/21 05:48:42;;;;;;;41.47;20.42;;;;;;;-149.78;100.00;50303.25;4880201;29;20064;-70
2022/04/21 05:51:09;;;;;;;43.25;22.15;;;;;;;-149.78;100.00;50285.66;4880109;29;20089;-70
2022/04/21 05:53:37;;;;;;;34.22;18.63;;;;;;;-149.78;100.00;50232.84;4880193;29;20123;-70
2022/04/21 05:56:05;;;;;;;41.97;21.05;;;;;;;-149.78;100.00;50256.31;4881098;29;20123;-70
2022/04/21 05:58:31;;;;;;;40.58;20.02;;;;;;;-149.78;100.00;50279.78;4889074;29;20032;-70
2022/04/21 06:01:00;;;;;;;48.78;20.50;;;;;;;-149.78;100.00;50279.78;4884870;29;20045;-70
2022/04/21 06:03:26;;;;;;;42.13;19.65;;;;;;;-149.78;100.00;50244.59;4885483;29;20036;-70
2022/04/21 06:05:52;;;;;;;42.67;19.75;;;;;;;-149.78;100.00;50228.94;4890339;29;20052;-70
2022/04/21 06:08:18;;;;;;;37.35;18.80;;;;;;;-149.78;100.00;50260.22;4880779;29;20406;-70
2022/04/21 06:10:43;;;;;;;43.15;19.95;;;;;;;-149.78;100.00;50328.69;4883360;29;20040;-70
2022/04/21 06:13:09;;;;;;;43.75;19.42;;;;;;;-149.78;100.00;50279.78;4880603;29;20037;-69
2022/04/21 06:15:35;;;;;;;37.17;19.02;;;;;;;-149.78;100.00;50283.69;4896638;29;20047;-70
2022/04/21 06:18:01;;;;;;;38.47;17.98;;;;;;;-149.78;100.00;50248.50;4884077;29;20044;-70
2022/04/21 06:20:27;;;;;;;37.80;18.55;;;;;;;-149.78;100.00;50264.13;4890226;29;20489;-70
2022/04/21 06:22:54;;;;;;;36.65;17.05;;;;;;;-149.78;100.00;50299.34;4888670;29;20036;-71
2022/04/21 06:25:21;;;;;;;35.42;18.52;;;;;;;-149.78;100.00;50277.81;4889847;29;20037;-71
2022/04/21 06:27:47;;;;;;;35.22;18.67;;;;;;;-149.78;100.00;50217.19;4886719;29;20080;-70
2022/04/21 06:30:13;;;;;;;32.08;17.17;;;;;;;-149.78;100.00;50260.22;4877204;29;20037;-70
2022/04/21 06:32:39;;;;;;;33.58;18.02;;;;;;;-149.78;100.00;50271.97;4886751;29;20047;-71
2022/04/21 06:35:05;;;;;;;34.00;16.92;;;;;;;-149.78;100.00;50260.22;4889528;29;20036;-72
2022/04/21 06:37:31;;;;;;;34.90;15.93;;;;;;;-149.78;100.00;50264.13;4889522;29;20489;-70
2022/04/21 06:39:56;;;;;;;27.38;15.02;;;;;;;-149.78;100.00;50264.13;4897950;29;20052;-71
2022/04/21 06:42:22;;;;;;;32.67;15.57;;;;;;;-149.78;100.00;50256.31;4881318;29;20048;-71
2022/04/21 06:50:17;;;;;;;23.98;12.85;;;;;;;-149.78;100.00;50193.72;4885279;29;20066;-72
2022/04/21 06:52:42;;;;;;;22.83;12.02;;;;;;;-149.78;100.00;50201.56;4887334;29;20041;-72
2022/04/21 06:55:08;;;;;;;24.98;13.02;;;;;;;-149.78;100.00;50189.81;4884531;29;20511;-72
2022/04/21 06:57:34;;;;;;;21.08;11.98;;;;;;;-149.78;100.00;50150.72;4884847;29;20040;-72
2022/04/21 07:00:00;;;;;;;25.98;12.00;;;;;;;-149.78;100.00;50138.97;4892676;29;20126;-72
2022/04/21 07:02:27;;;;;;;17.58;10.50;;;;;;;-149.78;100.00;50178.09;4887417;29;20118;-72
2022/04/21 07:04:54;;;;;;;17.48;10.73;;;;;;;-149.78;100.00;50084.22;4883621;29;20045;-72
2022/04/21 07:07:20;;;;;;;16.48;10.77;;;;;;;-149.78;100.00;50072.50;4880121;29;20036;-72
2022/04/21 07:09:45;;;;;;;15.98;10.48;;;;;;;-149.78;100.00;50052.94;4875981;29;20103;-70
2022/04/21 07:12:11;;;;;;;16.88;9.77;;;;;;;-149.78;100.00;50060.75;4881219;29;20036;-70
2022/04/21 07:14:36;;;;;;;15.70;9.45;;;;;;;-149.78;89.74;50072.50;4884026;29;20123;-70
2022/04/21 07:17:03;;;;;;;19.52;9.18;;;;;;;-149.78;73.41;50070.53;4882137;29;20457;-70
2022/04/21 07:19:28;;;;;;;13.45;8.95;;;;;;;-149.78;62.62;50009.91;4882388;29;20052;-71
2022/04/21 07:21:54;;;;;;;14.48;8.32;;;;;;;-149.78;58.70;50013.81;4878417;29;20037;-69
2022/04/21 07:24:20;;;;;;;16.67;9.50;;;;;;;-149.78;56.69;49988.41;4885297;29;20044;-69
2022/04/21 07:26:46;;;;;;;21.52;9.15;;;;;;;-149.78;55.20;50025.56;4887800;29;20129;-71
2022/04/21 07:29:11;;;;;;;14.57;8.77;;;;;;;-149.78;51.16;49990.34;4880146;29;20597;-73
2022/04/21 07:31:37;;;;;;;15.65;8.60;;;;;;;-149.78;50.83;49990.34;4889685;29;20144;-73
2022/04/21 07:34:04;;;;;;;16.42;8.90;;;;;;;-149.78;51.57;49996.22;4878190;29;20045;-73
2022/04/21 07:36:29;;;;;;;18.38;8.68;;;;;;;-149.78;53.48;50017.72;4877272;29;20099;-74
2022/04/21 07:38:56;;;;;;;11.35;7.47;;;;;;;-149.78;52.86;50011.88;4878074;29;20096;-74
2022/04/21 07:41:21;;;;;;;11.93;8.10;;;;;;;-149.78;50.43;49994.25;4861892;29;20421;-74
2022/04/21 07:43:47;;;;;;;12.48;7.35;;;;;;;-149.78;48.80;50009.91;4877797;29;20061;-74
2022/04/21 07:46:14;;;;;;;10.73;7.63;;;;;;;-149.78;48.91;50021.63;4878680;29;20052;-74
2022/04/21 07:51:24;;;;;;;13.75;8.07;;;;;;;-149.78;48.97;49998.19;4878774;29;20045;-74
2022/04/21 07:53:50;;;;;;;11.20;7.63;;;;;;;-149.78;49.45;50011.88;4877510;29;20132;-73
2022/04/21 07:56:15;;;;;;;11.00;6.88;;;;;;;-149.78;48.03;50002.09;4883338;29;20176;-74
2022/04/21 07:58:42;;;;;;;11.02;7.15;;;;;;;-149.78;48.51;49994.25;4887871;29;20536;-74
2022/04/21 08:01:07;;;;;;;12.80;6.65;;;;;;;-149.78;46.49;49990.34;4889841;29;20040;-74
2022/04/21 08:03:37;;;;;;;9.88;6.72;;;;;;;-149.78;46.71;50013.81;4887815;29;20539;-74
2022/04/21 08:06:05;;;;;;;13.55;7.32;;;;;;;-149.78;46.00;49988.41;4887996;29;20044;-74
2022/04/21 08:08:32;;;;;;;11.40;6.25;;;;;;;-149.78;45.61;49994.25;4888708;29;20048;-74
2022/04/21 08:10:57;;;;;;;11.85;6.50;;;;;;;-149.78;45.30;49994.25;4887529;29;20051;-74
2022/04/21 08:13:24;;;;;;;10.75;6.60;;;;;;;-149.78;46.35;50009.91;4873004;29;20582;-74
2022/04/21 08:15:53;;;;;;;18.40;6.93;;;;;;;-149.78;47.07;49998.19;4888708;29;20040;-74
2022/04/21 08:18:18;;;;;;;9.05;5.90;;;;;;;-149.78;45.54;49962.97;4888086;29;20044;-74
2022/04/21 08:20:46;;;;;;;11.82;6.20;;;;;;;-149.78;44.86;49947.34;4888601;29;20028;-74
2022/04/21 08:23:11;;;;;;;11.60;6.18;;;;;;;-149.78;43.23;49947.34;4888852;29;20046;-74
2022/04/21 08:33:51;;;;;;;15.18;6.80;;;;;;;-149.78;44.36;49998.19;4915237;29;20064;-74
2022/04/21 08:36:18;;;;;;;10.90;6.55;;;;;;;-149.78;44.79;49994.25;4887040;29;20045;-75
2022/04/21 08:38:44;;;;;;;12.00;7.32;;;;;;;-149.78;45.43;49959.06;4879386;29;20047;-74
2022/04/21 08:41:15;;;;;;;10.68;6.93;;;;;;;-149.78;44.29;49927.78;4878419;29;20393;-74
2022/04/21 08:43:40;;;;;;;12.23;6.47;;;;;;;-149.78;41.61;49947.34;4878248;29;20147;-74
2022/04/21 08:46:10;;;;;;;10.27;6.93;;;;;;;-149.78;42.46;49914.09;4879896;29;20088;-74
2022/04/21 08:48:38;;;;;;;10.07;6.18;;;;;;;-149.78;41.83;49939.50;4884646;29;20031;-75
2022/04/21 08:51:08;;;;;;;8.30;5.22;;;;;;;-149.78;42.44;49951.25;4897811;29;20553;-74
2022/04/21 08:53:33;;;;;;;9.02;5.72;;;;;;;-149.78;42.94;49931.69;4886851;29;20044;-74
2022/04/21 08:55:59;;;;;;;8.93;5.43;;;;;;;-149.78;44.13;49994.25;4881650;29;20040;-74
2022/04/21 08:58:25;;;;;;;8.75;5.47;;;;;;;-149.78;43.48;49947.34;4884724;29;20065;-74
2022/04/21 09:00:53;;;;;;;11.32;5.40;;;;;;;-149.78;42.39;49955.16;4883880;29;20657;-74
2022/04/21 09:03:19;;;;;;;10.18;4.97;;;;;;;-149.78;43.28;49943.41;4883422;29;20056;-75
2022/04/21 09:05:45;;;;;;;10.50;5.72;;;;;;;-149.78;42.67;49970.78;4883772;29;20135;-74
2022/04/21 09:08:37;;;;;;;12.82;6.25;;;;;;;-149.78;42.57;49935.59;4900221;29;20128;-74
2022/04/21 09:11:03;;;;;;;8.30;5.32;;;;;;;-149.78;41.94;49955.16;4896642;29;20060;-73
2022/04/21 09:13:37;;;;;;;14.65;6.50;;;;;;;-149.78;41.47;49939.50;4899956;29;20357;-74
2022/04/21 09:16:05;;;;;;;10.90;5.68;;;;;;;-149.78;43.65;49968.84;4900579;29;20093;-73
2022/04/21 09:18:42;;;;;;;13.20;6.50;;;;;;;-149.78;43.05;49964.94;4899906;29;20500;-74
2022/04/21 09:21:15;;;;;;;11.00;6.60;;;;;;;-149.78;43.88;49931.69;4899831;29;20536;-73
2022/04/21 09:23:44;;;;;;;9.57;6.32;;;;;;;-149.78;44.54;49994.25;4899795;29;20036;-74
2022/04/21 09:26:12;;;;;;;10.82;6.00;;;;;;;-149.78;43.16;49931.69;4911800;29;20110;-74
2022/04/21 09:28:38;;;;;;;20.08;6.20;;;;;;;-149.78;44.61;49972.75;4918650;29;20477;-74
2022/04/21 09:31:06;;;;;;;9.57;5.63;;;;;;;-149.78;43.54;49978.63;4917501;29;20046;-73
2022/04/21 09:33:34;;;;;;;9.75;5.93;;;;;;;-149.78;43.35;49947.34;4899746;29;20041;-74
2022/04/21 09:36:02;;;;;;;7.88;5.82;;;;;;;-149.78;43.95;49951.25;4899620;29;20047;-74
2022/04/21 09:38:28;;;;;;;8.13;5.57;;;;;;;-149.78;43.38;49955.16;4886097;29;20041;-74
2022/04/21 09:40:54;;;;;;;9.75;6.18;;;;;;;-149.78;44.57;49974.72;4885511;29;20041;-72
2022/04/21 09:43:30;;;;;;;7.85;5.97;;;;;;;-149.78;44.61;49947.34;4880371;29;20467;-72
2022/04/21 09:46:20;;;;;;;7.95;5.93;;;;;;;-149.78;45.19;49990.34;4880703;29;20119;-74
2022/04/21 09:48:51;;;;;;;12.65;6.40;;;;;;;-149.78;45.44;49955.16;4880690;29;20040;-74
2022/04/21 09:51:25;;;;;;;8.15;6.38;;;;;;;-149.78;45.12;49935.59;4880439;29;20041;-75
2022/04/21 09:53:53;;;;;;;11.20;6.53;;;;;;;-149.78;43.98;49978.63;4880396;29;20037;-74
2022/04/21 09:56:35;;;;;;;9.13;6.20;;;;;;;-149.78;43.36;49935.59;4879214;29;20044;-75
2022/04/21 09:59:09;;;;;;;10.60;6.53;;;;;;;-149.78;44.90;49947.34;4883250;29;20444;-74
2022/04/21 10:01:38;;;;;;;12.35;6.57;;;;;;;-149.78;45.46;49962.97;4880685;29;20370;-75
2022/04/21 10:04:08;;;;;;;8.27;6.10;;;;;;;-149.78;45.03;49951.25;4879395;29;20088;-74
2022/04/21 10:06:37;;;;;;;9.95;6.28;;;;;;;-149.78;43.46;49947.34;4880153;29;20045;-74
2022/04/21 10:09:03;;;;;;;10.00;6.35;;;;;;;-149.78;43.61;49939.50;4879126;29;20063;-74
2022/04/21 10:11:29;;;;;;;10.68;7.20;;;;;;;-149.78;43.69;49908.22;4879020;29;20093;-74
2022/04/21 10:13:56;;;;;;;21.95;6.72;;;;;;;-149.78;42.94;49921.91;4869435;29;20390;-71
2022/04/21 10:16:24;;;;;;;14.88;7.30;;;;;;;-149.78;43.15;49916.03;4879839;29;20088;-71
2022/04/21 10:18:55;;;;;;;9.63;6.80;;;;;;;-149.78;45.15;50025.56;4879637;29;20037;-71
2022/04/21 10:21:34;;;;;;;12.27;7.70;;;;;;;-149.78;44.79;49982.53;4879820;29;20044;-71
2022/04/21 10:24:01;;;;;;;10.13;7.28;;;;;;;-149.78;44.45;49974.72;4878259;29;20037;-71
2022/04/21 10:26:41;;;;;;;10.57;7.32;;;;;;;-149.78;45.06;49990.34;4889471;29;20178;-71
2022/04/21 10:29:11;;;;;;;14.70;8.73;;;;;;;-149.78;46.06;49984.50;4882188;29;20033;-71
2022/04/21 10:31:49;;;;;;;14.27;9.10;;;;;;;-149.78;47.19;49986.44;4889340;29;20468;-71
2022/04/21 10:34:32;;;;;;;16.13;8.93;;;;;;;-149.78;47.15;49988.41;4917019;29;20107;-71
2022/04/21 10:37:15;;;;;;;19.20;8.48;;;;;;;-149.78;46.07;49962.97;4916974;29;20084;-71
2022/04/21 10:40:09;;;;;;;13.32;8.73;;;;;;;-149.78;47.48;50006.00;4916976;29;20036;-70
2022/04/21 10:43:03;;;;;;;12.80;8.75;;;;;;;-149.78;48.56;50002.09;4909706;29;20068;-71
2022/04/21 10:45:33;;;;;;;14.10;8.80;;;;;;;-149.78;49.13;49986.44;4916866;29;20488;-70
2022/04/21 10:48:06;;;;;;;15.55;9.40;;;;;;;-149.78;50.55;50025.56;4915518;29;20044;-71
2022/04/21 10:50:33;;;;;;;17.83;10.77;;;;;;;-149.78;53.55;50054.88;4915398;29;20064;-70
2022/04/21 10:58:34;;;;;;;20.35;10.60;;;;;;;-149.78;54.83;50041.19;4916650;29;20131;-71
2022/04/21 11:01:07;;;;;;;19.63;10.53;;;;;;;-149.78;55.19;50029.47;4915425;29;20494;-71
2022/04/21 11:03:33;;;;;;;18.38;10.65;;;;;;;-149.78;55.11;50064.66;4916566;29;20058;-71
2022/04/21 11:06:05;;;;;;;21.55;10.90;;;;;;;-149.78;55.65;50025.56;4916646;29;20044;-71
2022/04/21 11:08:31;;;;;;;18.02;11.35;;;;;;;-149.78;54.08;50035.34;4916092;29;20036;-71
2022/04/21 11:10:57;;;;;;;21.10;11.55;;;;;;;-149.78;55.60;50041.19;4902873;29;20033;-71
2022/04/21 11:13:41;;;;;;;19.75;11.50;;;;;;;-149.78;57.75;50086.19;4877740;29;20127;-71
2022/04/21 11:16:08;;;;;;;22.63;12.57;;;;;;;-149.78;56.94;50084.22;4878916;29;20033;-71
2022/04/21 11:18:33;;;;;;;25.42;12.38;;;;;;;-149.78;58.83;50072.50;4890957;29;20047;-71
2022/04/21 11:21:22;;;;;;;20.95;12.32;;;;;;;-149.78;57.73;50058.78;4896310;29;20032;-71
2022/04/21 11:23:48;;;;;;;26.20;12.75;;;;;;;-149.78;56.35;50084.22;4896808;29;20036;-70
2022/04/21 11:26:13;;;;;;;25.70;13.10;;;;;;;-149.78;56.75;50052.94;4897071;29;20400;-70
2022/04/21 11:28:44;;;;;;;23.92;12.40;;;;;;;-149.78;57.20;50088.13;4897116;29;20040;-71
2022/04/21 11:31:10;;;;;;;23.40;12.32;;;;;;;-149.78;56.17;50017.72;4888371;29;20064;-72
2022/04/21 11:33:39;;;;;;;25.38;13.15;;;;;;;-149.78;54.35;50050.97;4897123;29;20055;-71
2022/04/21 11:36:09;;;;;;;20.35;13.18;;;;;;;-149.78;54.96;50072.50;4897250;29;20068;-71
2022/04/21 11:38:37;;;;;;;44.53;22.65;;;;;;;-149.78;56.78;50076.41;4897143;29;20114;-70
2022/04/21 11:41:03;;;;;;;46.22;21.80;;;;;;;-149.78;56.18;50068.56;4897046;29;20036;-71
2022/04/21 11:43:29;;;;;;;121.85;43.05;;;;;;;-149.78;56.04;50025.56;4896859;29;20673;-71